Flight Track Log - Related Links

Times and Time Zones

All times are in EDT time to prevent confusion due to time zone crossing. See the CSN6874 flight status page for this flight to view local times or setup timezone preferences in your user account.


Time Position Orientation Groundspeed Altitude Reporting Facility
EDT Latitude Longitude Course Direction KTS MPH feet Rate Location/Type
Thu 01:29:00 AM 42.8017 85.1239 55° Northeast  Level Estimated
Thu 01:30:00 AM 42.8642 85.2519 56° Northeast  Level Estimated
Thu 01:31:00 AM 42.9266 85.3801 56° Northeast  Level Estimated
Thu 01:32:00 AM 42.9888 85.5087 56° Northeast  Level Estimated
Thu 01:33:00 AM 43.0508 85.6374 57° Northeast  Level Estimated
Thu 01:34:00 AM 43.1128 85.7665 57° Northeast  Level Estimated
Thu 01:35:00 AM 43.1745 85.8958 57° Northeast  Level Estimated
Thu 01:36:00 AM 43.2362 86.0253 57° Northeast  Level Estimated
Thu 01:37:00 AM 43.2976 86.1552 57° Northeast  Level Estimated
Thu 01:38:00 AM 43.3590 86.2853 57° Northeast  Level Estimated
Thu 01:39:00 AM 43.4202 86.4156 57° Northeast  Level Estimated
Thu 01:40:00 AM 43.4812 86.5462 57° Northeast  Level Estimated
Thu 01:41:00 AM 43.5421 86.6771 57° Northeast  Level Estimated
Thu 01:42:00 AM 43.6028 86.8083 57° Northeast  Level Estimated
Thu 01:43:00 AM 43.6634 86.9397 57° Northeast  Level Estimated
Thu 01:44:00 AM 43.7239 87.0713 58° Northeast  Level Estimated
Thu 01:45:00 AM 43.7841 87.2033 58° Northeast  Level Estimated
Thu 01:46:00 AM 43.8443 87.3355 58° Northeast  Level Estimated
Thu 01:47:00 AM 43.9043 87.4680 58° Northeast  Level Estimated
Thu 01:48:00 AM 43.9071 87.4742 58° Northeast  Level Estimated
Thu 01:49:00 AM 43.9071 87.4742 North  Level Estimated
Thu 01:50:00 AM 43.9071 87.4742 North  Level Estimated
Thu 01:51:00 AM 43.9071 87.4742 North  Level Estimated
Thu 01:52:00 AM 43.9071 87.4742 North  Level Estimated
Thu 01:53:00 AM 43.9071 87.4742 North  Level Estimated
Thu 01:54:00 AM 43.9071 87.4742 North  Level Estimated
Thu 01:55:00 AM 43.9071 87.4742 North  Level Estimated
Thu 01:56:00 AM 43.9071 87.4742 North  Level Estimated
Thu 01:57:00 AM 43.9071 87.4742 North  Level Estimated
Thu 01:58:00 AM 43.9071 87.4742 North  Level Estimated
Thu 01:59:00 AM 43.9071 87.4742 North  Level Estimated
Thu 02:00:00 AM 43.9071 87.4742 North  Level Estimated
Thu 02:01:00 AM 43.9071 87.4742 North  Level Estimated
Thu 02:02:00 AM 43.9071 87.4742 North  Level Estimated
Thu 02:03:00 AM 43.9071 87.4742 North  Level Estimated

Login

Don't have an account? Register now (free) for customized features, flight alerts, and more!